sensor_id;sensor_type;location;lat;lon;timestamp;P1;durP1;ratioP1;P2;durP2;ratioP2
46643;SDS011;32371;51.032;5.816;2024-01-30T00:02:12;9.13;;;4.00;;
46643;SDS011;32371;51.032;5.816;2024-01-30T00:04:37;12.23;;;3.95;;
46643;SDS011;32371;51.032;5.816;2024-01-30T00:07:03;8.35;;;4.32;;
46643;SDS011;32371;51.032;5.816;2024-01-30T00:09:28;10.63;;;3.40;;
46643;SDS011;32371;51.032;5.816;2024-01-30T00:11:54;6.22;;;3.40;;
46643;SDS011;32371;51.032;5.816;2024-01-30T00:14:19;10.50;;;4.85;;
46643;SDS011;32371;51.032;5.816;2024-01-30T00:16:44;5.50;;;3.67;;
46643;SDS011;32371;51.032;5.816;2024-01-30T00:19:10;7.10;;;3.63;;
46643;SDS011;32371;51.032;5.816;2024-01-30T00:21:35;9.73;;;4.28;;
46643;SDS011;32371;51.032;5.816;2024-01-30T00:24:01;11.77;;;3.85;;
46643;SDS011;32371;51.032;5.816;2024-01-30T00:26:26;10.45;;;3.63;;
46643;SDS011;32371;51.032;5.816;2024-01-30T00:28:51;6.65;;;3.63;;
46643;SDS011;32371;51.032;5.816;2024-01-30T00:31:17;7.32;;;3.60;;
46643;SDS011;32371;51.032;5.816;2024-01-30T00:33:42;8.80;;;3.90;;
46643;SDS011;32371;51.032;5.816;2024-01-30T00:36:08;8.07;;;3.67;;
46643;SDS011;32371;51.032;5.816;2024-01-30T00:38:34;8.70;;;3.00;;
46643;SDS011;32371;51.032;5.816;2024-01-30T00:41:00;7.15;;;3.40;;
46643;SDS011;32371;51.032;5.816;2024-01-30T00:43:27;5.95;;;3.60;;
46643;SDS011;32371;51.032;5.816;2024-01-30T00:45:52;11.27;;;3.53;;
46643;SDS011;32371;51.032;5.816;2024-01-30T00:48:18;8.45;;;3.15;;
46643;SDS011;32371;51.032;5.816;2024-01-30T00:50:43;6.82;;;3.30;;
46643;SDS011;32371;51.032;5.816;2024-01-30T00:53:08;7.18;;;3.22;;
46643;SDS011;32371;51.032;5.816;2024-01-30T00:55:34;8.60;;;3.63;;
46643;SDS011;32371;51.032;5.816;2024-01-30T00:58:00;5.75;;;2.53;;
46643;SDS011;32371;51.032;5.816;2024-01-30T01:00:25;7.00;;;2.92;;
46643;SDS011;32371;51.032;5.816;2024-01-30T01:02:54;13.23;;;3.80;;
46643;SDS011;32371;51.032;5.816;2024-01-30T01:05:25;7.65;;;3.47;;
46643;SDS011;32371;51.032;5.816;2024-01-30T01:07:50;15.43;;;3.88;;
46643;SDS011;32371;51.032;5.816;2024-01-30T01:10:16;5.22;;;3.45;;
46643;SDS011;32371;51.032;5.816;2024-01-30T01:12:42;5.90;;;3.10;;
46643;SDS011;32371;51.032;5.816;2024-01-30T01:15:07;5.85;;;2.75;;
46643;SDS011;32371;51.032;5.816;2024-01-30T01:17:34;12.10;;;3.45;;
46643;SDS011;32371;51.032;5.816;2024-01-30T01:20:00;9.40;;;2.95;;
46643;SDS011;32371;51.032;5.816;2024-01-30T01:22:27;5.00;;;2.72;;
46643;SDS011;32371;51.032;5.816;2024-01-30T01:24:52;5.15;;;3.40;;
46643;SDS011;32371;51.032;5.816;2024-01-30T01:27:17;7.15;;;2.67;;
46643;SDS011;32371;51.032;5.816;2024-01-30T01:29:43;5.53;;;3.15;;
46643;SDS011;32371;51.032;5.816;2024-01-30T01:32:08;7.30;;;2.90;;
46643;SDS011;32371;51.032;5.816;2024-01-30T01:34:33;4.93;;;2.90;;
46643;SDS011;32371;51.032;5.816;2024-01-30T01:36:59;3.08;;;2.38;;
46643;SDS011;32371;51.032;5.816;2024-01-30T01:39:25;5.43;;;2.72;;
46643;SDS011;32371;51.032;5.816;2024-01-30T01:41:50;3.25;;;2.58;;
46643;SDS011;32371;51.032;5.816;2024-01-30T01:44:17;9.57;;;2.97;;
46643;SDS011;32371;51.032;5.816;2024-01-30T01:46:43;3.42;;;2.60;;
46643;SDS011;32371;51.032;5.816;2024-01-30T01:49:08;3.65;;;2.83;;
46643;SDS011;32371;51.032;5.816;2024-01-30T01:51:35;4.32;;;2.40;;
46643;SDS011;32371;51.032;5.816;2024-01-30T01:54:01;4.03;;;2.65;;
46643;SDS011;32371;51.032;5.816;2024-01-30T01:56:28;6.15;;;2.60;;
46643;SDS011;32371;51.032;5.816;2024-01-30T01:58:54;5.68;;;2.78;;
46643;SDS011;32371;51.032;5.816;2024-01-30T02:01:20;7.75;;;2.95;;
46643;SDS011;32371;51.032;5.816;2024-01-30T02:03:46;5.93;;;2.95;;
46643;SDS011;32371;51.032;5.816;2024-01-30T02:06:12;5.95;;;2.45;;
46643;SDS011;32371;51.032;5.816;2024-01-30T02:08:38;5.00;;;2.80;;
46643;SDS011;32371;51.032;5.816;2024-01-30T02:11:04;5.82;;;2.33;;
46643;SDS011;32371;51.032;5.816;2024-01-30T02:13:29;4.28;;;2.38;;
46643;SDS011;32371;51.032;5.816;2024-01-30T02:15:55;3.90;;;2.30;;
46643;SDS011;32371;51.032;5.816;2024-01-30T02:18:20;4.45;;;2.72;;
46643;SDS011;32371;51.032;5.816;2024-01-30T02:20:48;7.47;;;2.65;;
46643;SDS011;32371;51.032;5.816;2024-01-30T02:23:15;5.65;;;2.65;;
46643;SDS011;32371;51.032;5.816;2024-01-30T02:25:40;4.65;;;2.35;;
46643;SDS011;32371;51.032;5.816;2024-01-30T02:28:12;4.72;;;3.05;;
46643;SDS011;32371;51.032;5.816;2024-01-30T02:30:47;7.03;;;2.72;;
46643;SDS011;32371;51.032;5.816;2024-01-30T02:33:12;4.93;;;2.55;;
46643;SDS011;32371;51.032;5.816;2024-01-30T02:35:38;6.00;;;2.88;;
46643;SDS011;32371;51.032;5.816;2024-01-30T02:38:04;4.65;;;2.10;;
46643;SDS011;32371;51.032;5.816;2024-01-30T02:40:29;8.80;;;2.38;;
46643;SDS011;32371;51.032;5.816;2024-01-30T02:42:55;6.50;;;2.55;;
46643;SDS011;32371;51.032;5.816;2024-01-30T02:45:21;3.30;;;2.38;;
46643;SDS011;32371;51.032;5.816;2024-01-30T02:47:46;3.55;;;2.63;;
46643;SDS011;32371;51.032;5.816;2024-01-30T02:50:11;5.35;;;2.30;;
46643;SDS011;32371;51.032;5.816;2024-01-30T02:52:37;4.28;;;2.75;;
46643;SDS011;32371;51.032;5.816;2024-01-30T02:55:02;5.07;;;2.50;;
46643;SDS011;32371;51.032;5.816;2024-01-30T02:57:28;4.85;;;2.50;;
46643;SDS011;32371;51.032;5.816;2024-01-30T02:59:53;5.07;;;2.10;;
46643;SDS011;32371;51.032;5.816;2024-01-30T03:02:19;5.50;;;2.60;;
46643;SDS011;32371;51.032;5.816;2024-01-30T03:04:44;5.40;;;2.22;;
46643;SDS011;32371;51.032;5.816;2024-01-30T03:07:10;5.15;;;2.28;;
46643;SDS011;32371;51.032;5.816;2024-01-30T03:09:36;4.43;;;2.30;;
46643;SDS011;32371;51.032;5.816;2024-01-30T03:12:01;4.65;;;2.92;;
46643;SDS011;32371;51.032;5.816;2024-01-30T03:14:27;7.40;;;2.08;;
46643;SDS011;32371;51.032;5.816;2024-01-30T03:16:53;3.30;;;2.28;;
46643;SDS011;32371;51.032;5.816;2024-01-30T03:19:19;7.05;;;2.15;;
46643;SDS011;32371;51.032;5.816;2024-01-30T03:21:44;3.95;;;2.50;;
46643;SDS011;32371;51.032;5.816;2024-01-30T03:24:09;2.65;;;2.22;;
46643;SDS011;32371;51.032;5.816;2024-01-30T03:26:35;3.00;;;2.33;;
46643;SDS011;32371;51.032;5.816;2024-01-30T03:29:00;3.85;;;2.45;;
46643;SDS011;32371;51.032;5.816;2024-01-30T03:31:26;5.28;;;2.40;;
46643;SDS011;32371;51.032;5.816;2024-01-30T03:33:51;4.53;;;2.58;;
46643;SDS011;32371;51.032;5.816;2024-01-30T03:36:16;3.75;;;2.30;;
46643;SDS011;32371;51.032;5.816;2024-01-30T03:38:42;10.32;;;2.47;;
46643;SDS011;32371;51.032;5.816;2024-01-30T03:41:10;6.80;;;2.55;;
46643;SDS011;32371;51.032;5.816;2024-01-30T03:43:35;6.63;;;2.60;;
46643;SDS011;32371;51.032;5.816;2024-01-30T03:46:01;7.30;;;3.05;;
46643;SDS011;32371;51.032;5.816;2024-01-30T03:48:27;11.38;;;2.22;;
46643;SDS011;32371;51.032;5.816;2024-01-30T03:50:53;3.97;;;2.17;;
46643;SDS011;32371;51.032;5.816;2024-01-30T03:53:18;4.18;;;3.00;;
46643;SDS011;32371;51.032;5.816;2024-01-30T03:55:44;4.45;;;2.33;;
46643;SDS011;32371;51.032;5.816;2024-01-30T03:58:10;4.93;;;2.42;;
46643;SDS011;32371;51.032;5.816;2024-01-30T04:00:35;3.60;;;2.17;;
46643;SDS011;32371;51.032;5.816;2024-01-30T04:03:01;6.60;;;2.65;;
46643;SDS011;32371;51.032;5.816;2024-01-30T04:05:26;5.22;;;2.05;;
46643;SDS011;32371;51.032;5.816;2024-01-30T04:07:51;7.28;;;2.75;;
46643;SDS011;32371;51.032;5.816;2024-01-30T04:10:17;2.83;;;1.90;;
46643;SDS011;32371;51.032;5.816;2024-01-30T04:12:42;5.05;;;1.98;;
46643;SDS011;32371;51.032;5.816;2024-01-30T04:15:08;6.28;;;2.78;;
46643;SDS011;32371;51.032;5.816;2024-01-30T04:17:33;5.50;;;2.88;;
46643;SDS011;32371;51.032;5.816;2024-01-30T04:19:59;3.10;;;2.22;;
46643;SDS011;32371;51.032;5.816;2024-01-30T04:22:24;3.22;;;2.50;;
46643;SDS011;32371;51.032;5.816;2024-01-30T04:24:49;4.60;;;2.58;;
46643;SDS011;32371;51.032;5.816;2024-01-30T04:27:15;12.13;;;3.22;;
46643;SDS011;32371;51.032;5.816;2024-01-30T04:29:41;4.28;;;2.60;;
46643;SDS011;32371;51.032;5.816;2024-01-30T04:32:06;4.55;;;2.10;;
46643;SDS011;32371;51.032;5.816;2024-01-30T04:34:31;4.70;;;2.45;;
46643;SDS011;32371;51.032;5.816;2024-01-30T04:36:57;5.97;;;2.60;;
46643;SDS011;32371;51.032;5.816;2024-01-30T04:39:22;3.33;;;2.70;;
46643;SDS011;32371;51.032;5.816;2024-01-30T04:41:47;5.07;;;3.67;;
46643;SDS011;32371;51.032;5.816;2024-01-30T04:44:13;4.18;;;1.70;;
46643;SDS011;32371;51.032;5.816;2024-01-30T04:46:38;4.25;;;2.67;;
46643;SDS011;32371;51.032;5.816;2024-01-30T04:49:04;4.10;;;2.70;;
46643;SDS011;32371;51.032;5.816;2024-01-30T04:51:29;6.63;;;2.00;;
46643;SDS011;32371;51.032;5.816;2024-01-30T04:53:55;5.28;;;1.90;;
46643;SDS011;32371;51.032;5.816;2024-01-30T04:56:20;5.25;;;2.13;;
46643;SDS011;32371;51.032;5.816;2024-01-30T04:58:46;3.92;;;2.45;;
46643;SDS011;32371;51.032;5.816;2024-01-30T05:01:18;7.38;;;2.58;;
46643;SDS011;32371;51.032;5.816;2024-01-30T05:03:43;2.88;;;1.77;;
46643;SDS011;32371;51.032;5.816;2024-01-30T05:06:09;4.38;;;2.20;;
46643;SDS011;32371;51.032;5.816;2024-01-30T05:08:34;4.00;;;1.90;;
46643;SDS011;32371;51.032;5.816;2024-01-30T05:11:03;2.90;;;2.08;;
46643;SDS011;32371;51.032;5.816;2024-01-30T05:13:31;5.60;;;2.45;;
46643;SDS011;32371;51.032;5.816;2024-01-30T05:15:56;5.13;;;2.58;;
46643;SDS011;32371;51.032;5.816;2024-01-30T05:18:22;2.30;;;1.77;;
46643;SDS011;32371;51.032;5.816;2024-01-30T05:20:48;4.80;;;2.22;;
46643;SDS011;32371;51.032;5.816;2024-01-30T05:23:14;6.55;;;1.83;;
46643;SDS011;32371;51.032;5.816;2024-01-30T05:25:40;5.88;;;2.45;;
46643;SDS011;32371;51.032;5.816;2024-01-30T05:28:05;3.47;;;2.13;;
46643;SDS011;32371;51.032;5.816;2024-01-30T05:30:30;3.53;;;2.25;;
46643;SDS011;32371;51.032;5.816;2024-01-30T05:32:56;4.85;;;2.15;;
46643;SDS011;32371;51.032;5.816;2024-01-30T05:35:21;3.33;;;1.65;;
46643;SDS011;32371;51.032;5.816;2024-01-30T05:37:47;3.75;;;2.40;;
46643;SDS011;32371;51.032;5.816;2024-01-30T05:40:14;3.85;;;2.20;;
46643;SDS011;32371;51.032;5.816;2024-01-30T05:42:40;3.20;;;2.10;;
46643;SDS011;32371;51.032;5.816;2024-01-30T05:45:05;3.92;;;1.85;;
46643;SDS011;32371;51.032;5.816;2024-01-30T05:47:31;2.78;;;1.80;;
46643;SDS011;32371;51.032;5.816;2024-01-30T05:49:57;4.97;;;1.63;;
46643;SDS011;32371;51.032;5.816;2024-01-30T05:52:23;3.20;;;1.85;;
46643;SDS011;32371;51.032;5.816;2024-01-30T05:54:48;3.90;;;2.20;;
46643;SDS011;32371;51.032;5.816;2024-01-30T05:57:14;3.45;;;1.80;;
46643;SDS011;32371;51.032;5.816;2024-01-30T05:59:39;3.30;;;2.15;;
46643;SDS011;32371;51.032;5.816;2024-01-30T06:02:04;5.57;;;2.30;;
46643;SDS011;32371;51.032;5.816;2024-01-30T06:04:29;4.03;;;1.80;;
46643;SDS011;32371;51.032;5.816;2024-01-30T06:06:55;3.50;;;1.92;;
46643;SDS011;32371;51.032;5.816;2024-01-30T06:09:20;3.45;;;2.53;;
46643;SDS011;32371;51.032;5.816;2024-01-30T06:11:45;5.45;;;2.50;;
46643;SDS011;32371;51.032;5.816;2024-01-30T06:14:11;5.55;;;2.40;;
46643;SDS011;32371;51.032;5.816;2024-01-30T06:16:36;4.75;;;2.28;;
46643;SDS011;32371;51.032;5.816;2024-01-30T06:19:01;3.85;;;2.03;;
46643;SDS011;32371;51.032;5.816;2024-01-30T06:21:27;3.67;;;1.95;;
46643;SDS011;32371;51.032;5.816;2024-01-30T06:23:53;4.80;;;2.63;;
46643;SDS011;32371;51.032;5.816;2024-01-30T06:26:19;5.93;;;2.30;;
46643;SDS011;32371;51.032;5.816;2024-01-30T06:28:44;4.80;;;2.33;;
46643;SDS011;32371;51.032;5.816;2024-01-30T06:31:09;6.40;;;2.78;;
46643;SDS011;32371;51.032;5.816;2024-01-30T06:33:35;5.18;;;2.80;;
46643;SDS011;32371;51.032;5.816;2024-01-30T06:36:00;4.65;;;2.10;;
46643;SDS011;32371;51.032;5.816;2024-01-30T06:38:25;3.20;;;2.03;;
46643;SDS011;32371;51.032;5.816;2024-01-30T06:40:51;4.07;;;2.10;;
46643;SDS011;32371;51.032;5.816;2024-01-30T06:43:16;3.53;;;2.50;;
46643;SDS011;32371;51.032;5.816;2024-01-30T06:45:42;4.55;;;2.28;;
46643;SDS011;32371;51.032;5.816;2024-01-30T06:48:07;4.80;;;2.45;;
46643;SDS011;32371;51.032;5.816;2024-01-30T06:50:33;3.47;;;2.05;;
46643;SDS011;32371;51.032;5.816;2024-01-30T06:52:58;9.18;;;2.67;;
46643;SDS011;32371;51.032;5.816;2024-01-30T06:55:24;7.30;;;2.33;;
46643;SDS011;32371;51.032;5.816;2024-01-30T06:57:49;5.15;;;2.35;;
46643;SDS011;32371;51.032;5.816;2024-01-30T07:00:14;4.05;;;2.42;;
46643;SDS011;32371;51.032;5.816;2024-01-30T07:02:44;4.03;;;2.53;;
46643;SDS011;32371;51.032;5.816;2024-01-30T07:05:10;3.20;;;2.10;;
46643;SDS011;32371;51.032;5.816;2024-01-30T07:07:35;6.07;;;2.15;;
46643;SDS011;32371;51.032;5.816;2024-01-30T07:10:00;4.15;;;2.35;;
46643;SDS011;32371;51.032;5.816;2024-01-30T07:12:26;6.78;;;2.70;;
46643;SDS011;32371;51.032;5.816;2024-01-30T07:14:52;4.13;;;2.10;;
46643;SDS011;32371;51.032;5.816;2024-01-30T07:17:18;2.55;;;1.80;;
46643;SDS011;32371;51.032;5.816;2024-01-30T07:19:43;6.93;;;2.88;;
46643;SDS011;32371;51.032;5.816;2024-01-30T07:22:09;7.40;;;2.97;;
46643;SDS011;32371;51.032;5.816;2024-01-30T07:24:34;4.90;;;2.53;;
46643;SDS011;32371;51.032;5.816;2024-01-30T07:26:59;6.03;;;2.88;;
46643;SDS011;32371;51.032;5.816;2024-01-30T07:29:25;9.07;;;2.60;;
46643;SDS011;32371;51.032;5.816;2024-01-30T07:31:50;4.55;;;2.60;;
46643;SDS011;32371;51.032;5.816;2024-01-30T07:34:17;6.82;;;2.53;;
46643;SDS011;32371;51.032;5.816;2024-01-30T07:36:42;5.22;;;2.35;;
46643;SDS011;32371;51.032;5.816;2024-01-30T07:39:07;4.82;;;2.28;;
46643;SDS011;32371;51.032;5.816;2024-01-30T07:41:35;6.95;;;3.40;;
46643;SDS011;32371;51.032;5.816;2024-01-30T07:44:00;3.60;;;2.83;;
46643;SDS011;32371;51.032;5.816;2024-01-30T07:46:25;5.35;;;2.45;;
46643;SDS011;32371;51.032;5.816;2024-01-30T07:48:50;5.22;;;2.70;;
46643;SDS011;32371;51.032;5.816;2024-01-30T07:51:16;5.35;;;2.75;;
46643;SDS011;32371;51.032;5.816;2024-01-30T07:53:42;4.70;;;2.78;;
46643;SDS011;32371;51.032;5.816;2024-01-30T07:56:08;4.25;;;2.83;;
46643;SDS011;32371;51.032;5.816;2024-01-30T07:58:33;7.18;;;2.80;;
46643;SDS011;32371;51.032;5.816;2024-01-30T08:00:58;6.05;;;2.55;;
46643;SDS011;32371;51.032;5.816;2024-01-30T08:03:25;8.30;;;2.83;;
46643;SDS011;32371;51.032;5.816;2024-01-30T08:05:50;12.18;;;2.70;;
46643;SDS011;32371;51.032;5.816;2024-01-30T08:08:16;6.13;;;2.70;;
46643;SDS011;32371;51.032;5.816;2024-01-30T08:10:41;5.10;;;2.53;;
46643;SDS011;32371;51.032;5.816;2024-01-30T08:13:06;6.07;;;3.47;;
46643;SDS011;32371;51.032;5.816;2024-01-30T08:15:33;9.68;;;3.08;;
46643;SDS011;32371;51.032;5.816;2024-01-30T08:17:59;7.72;;;3.33;;
46643;SDS011;32371;51.032;5.816;2024-01-30T08:20:24;6.47;;;3.35;;
46643;SDS011;32371;51.032;5.816;2024-01-30T08:22:50;6.80;;;2.97;;
46643;SDS011;32371;51.032;5.816;2024-01-30T08:25:16;6.32;;;3.20;;
46643;SDS011;32371;51.032;5.816;2024-01-30T08:27:41;5.28;;;2.30;;
46643;SDS011;32371;51.032;5.816;2024-01-30T08:30:06;5.82;;;3.15;;
46643;SDS011;32371;51.032;5.816;2024-01-30T08:32:32;6.03;;;2.95;;
46643;SDS011;32371;51.032;5.816;2024-01-30T08:34:58;8.45;;;3.30;;
46643;SDS011;32371;51.032;5.816;2024-01-30T08:37:23;5.75;;;3.38;;
46643;SDS011;32371;51.032;5.816;2024-01-30T08:39:49;6.57;;;3.03;;
46643;SDS011;32371;51.032;5.816;2024-01-30T08:42:14;3.85;;;2.85;;
46643;SDS011;32371;51.032;5.816;2024-01-30T08:44:39;4.68;;;3.03;;
46643;SDS011;32371;51.032;5.816;2024-01-30T08:47:05;5.35;;;2.97;;
46643;SDS011;32371;51.032;5.816;2024-01-30T08:49:31;12.18;;;3.13;;
46643;SDS011;32371;51.032;5.816;2024-01-30T08:51:56;6.57;;;2.65;;
46643;SDS011;32371;51.032;5.816;2024-01-30T08:54:21;4.82;;;2.55;;
46643;SDS011;32371;51.032;5.816;2024-01-30T08:56:47;5.20;;;3.05;;
46643;SDS011;32371;51.032;5.816;2024-01-30T08:59:13;9.70;;;3.22;;
46643;SDS011;32371;51.032;5.816;2024-01-30T09:01:38;7.10;;;3.15;;
46643;SDS011;32371;51.032;5.816;2024-01-30T09:04:04;4.60;;;3.38;;
46643;SDS011;32371;51.032;5.816;2024-01-30T09:06:29;6.85;;;3.22;;
46643;SDS011;32371;51.032;5.816;2024-01-30T09:08:54;7.88;;;3.10;;
46643;SDS011;32371;51.032;5.816;2024-01-30T09:11:20;4.18;;;2.80;;
46643;SDS011;32371;51.032;5.816;2024-01-30T09:13:45;5.47;;;2.80;;
46643;SDS011;32371;51.032;5.816;2024-01-30T09:16:11;4.78;;;3.10;;
46643;SDS011;32371;51.032;5.816;2024-01-30T09:18:36;4.35;;;3.08;;
46643;SDS011;32371;51.032;5.816;2024-01-30T09:21:01;6.88;;;3.15;;
46643;SDS011;32371;51.032;5.816;2024-01-30T09:23:27;6.10;;;3.20;;
46643;SDS011;32371;51.032;5.816;2024-01-30T09:25:52;6.38;;;2.88;;
46643;SDS011;32371;51.032;5.816;2024-01-30T09:28:18;5.20;;;2.53;;
46643;SDS011;32371;51.032;5.816;2024-01-30T09:30:43;7.50;;;2.70;;
46643;SDS011;32371;51.032;5.816;2024-01-30T09:33:08;6.88;;;3.08;;
46643;SDS011;32371;51.032;5.816;2024-01-30T09:35:34;8.55;;;3.15;;
46643;SDS011;32371;51.032;5.816;2024-01-30T09:38:00;9.27;;;3.08;;
46643;SDS011;32371;51.032;5.816;2024-01-30T09:40:26;4.95;;;2.75;;
46643;SDS011;32371;51.032;5.816;2024-01-30T09:42:51;9.05;;;3.65;;
46643;SDS011;32371;51.032;5.816;2024-01-30T09:45:19;6.60;;;3.00;;
46643;SDS011;32371;51.032;5.816;2024-01-30T09:47:46;11.32;;;3.28;;
46643;SDS011;32371;51.032;5.816;2024-01-30T09:50:14;4.55;;;3.28;;
46643;SDS011;32371;51.032;5.816;2024-01-30T09:52:40;5.30;;;3.50;;
46643;SDS011;32371;51.032;5.816;2024-01-30T09:55:06;7.50;;;3.20;;
46643;SDS011;32371;51.032;5.816;2024-01-30T09:57:31;5.78;;;3.13;;
46643;SDS011;32371;51.032;5.816;2024-01-30T09:59:57;8.68;;;3.65;;
46643;SDS011;32371;51.032;5.816;2024-01-30T10:02:22;7.50;;;3.55;;
46643;SDS011;32371;51.032;5.816;2024-01-30T10:04:48;7.95;;;3.20;;
46643;SDS011;32371;51.032;5.816;2024-01-30T10:07:14;7.55;;;2.90;;
46643;SDS011;32371;51.032;5.816;2024-01-30T10:09:40;8.05;;;3.10;;
46643;SDS011;32371;51.032;5.816;2024-01-30T10:12:05;7.53;;;4.13;;
46643;SDS011;32371;51.032;5.816;2024-01-30T10:14:31;13.73;;;3.25;;
46643;SDS011;32371;51.032;5.816;2024-01-30T10:16:57;7.75;;;3.30;;
46643;SDS011;32371;51.032;5.816;2024-01-30T10:19:22;6.57;;;3.20;;
46643;SDS011;32371;51.032;5.816;2024-01-30T10:21:48;7.32;;;3.25;;
46643;SDS011;32371;51.032;5.816;2024-01-30T10:24:13;4.00;;;2.80;;
46643;SDS011;32371;51.032;5.816;2024-01-30T10:26:39;6.75;;;3.55;;
46643;SDS011;32371;51.032;5.816;2024-01-30T10:29:04;3.38;;;2.72;;
46643;SDS011;32371;51.032;5.816;2024-01-30T10:31:30;6.40;;;3.00;;
46643;SDS011;32371;51.032;5.816;2024-01-30T10:33:55;9.50;;;3.47;;
46643;SDS011;32371;51.032;5.816;2024-01-30T10:36:21;8.63;;;3.40;;
46643;SDS011;32371;51.032;5.816;2024-01-30T10:38:51;7.07;;;3.67;;
46643;SDS011;32371;51.032;5.816;2024-01-30T10:41:20;5.65;;;3.45;;
46643;SDS011;32371;51.032;5.816;2024-01-30T10:43:56;8.07;;;2.90;;
46643;SDS011;32371;51.032;5.816;2024-01-30T10:46:27;6.95;;;3.53;;
46643;SDS011;32371;51.032;5.816;2024-01-30T10:48:57;8.77;;;3.35;;
46643;SDS011;32371;51.032;5.816;2024-01-30T10:51:24;9.35;;;3.17;;
46643;SDS011;32371;51.032;5.816;2024-01-30T10:53:51;10.35;;;3.30;;
46643;SDS011;32371;51.032;5.816;2024-01-30T10:56:18;10.65;;;3.40;;
46643;SDS011;32371;51.032;5.816;2024-01-30T10:58:45;7.22;;;3.20;;
46643;SDS011;32371;51.032;5.816;2024-01-30T11:01:11;8.80;;;3.22;;
46643;SDS011;32371;51.032;5.816;2024-01-30T11:03:37;8.20;;;3.10;;
46643;SDS011;32371;51.032;5.816;2024-01-30T11:06:02;8.27;;;3.47;;
46643;SDS011;32371;51.032;5.816;2024-01-30T11:08:28;5.75;;;3.67;;
46643;SDS011;32371;51.032;5.816;2024-01-30T11:10:57;8.18;;;3.15;;
46643;SDS011;32371;51.032;5.816;2024-01-30T11:13:30;10.13;;;3.88;;
46643;SDS011;32371;51.032;5.816;2024-01-30T11:15:55;9.50;;;3.35;;
46643;SDS011;32371;51.032;5.816;2024-01-30T11:18:25;6.72;;;3.17;;
46643;SDS011;32371;51.032;5.816;2024-01-30T11:20:51;8.63;;;3.85;;
46643;SDS011;32371;51.032;5.816;2024-01-30T11:23:17;10.32;;;4.28;;
46643;SDS011;32371;51.032;5.816;2024-01-30T11:25:43;10.45;;;3.55;;
46643;SDS011;32371;51.032;5.816;2024-01-30T11:28:13;5.80;;;3.45;;
46643;SDS011;32371;51.032;5.816;2024-01-30T11:30:41;10.50;;;3.78;;
46643;SDS011;32371;51.032;5.816;2024-01-30T11:33:11;12.40;;;3.15;;
46643;SDS011;32371;51.032;5.816;2024-01-30T11:35:37;11.35;;;5.72;;
46643;SDS011;32371;51.032;5.816;2024-01-30T11:38:04;10.98;;;4.05;;
46643;SDS011;32371;51.032;5.816;2024-01-30T11:40:31;8.07;;;3.83;;
46643;SDS011;32371;51.032;5.816;2024-01-30T11:42:58;6.25;;;3.28;;
46643;SDS011;32371;51.032;5.816;2024-01-30T11:45:24;7.25;;;3.33;;
46643;SDS011;32371;51.032;5.816;2024-01-30T11:47:49;7.85;;;3.92;;
46643;SDS011;32371;51.032;5.816;2024-01-30T11:50:15;10.88;;;3.67;;
46643;SDS011;32371;51.032;5.816;2024-01-30T11:52:40;8.93;;;3.80;;
46643;SDS011;32371;51.032;5.816;2024-01-30T11:55:06;7.25;;;3.13;;
46643;SDS011;32371;51.032;5.816;2024-01-30T11:57:33;6.60;;;3.65;;
46643;SDS011;32371;51.032;5.816;2024-01-30T12:00:00;9.43;;;3.80;;
46643;SDS011;32371;51.032;5.816;2024-01-30T12:02:25;8.35;;;3.45;;
46643;SDS011;32371;51.032;5.816;2024-01-30T12:04:51;12.20;;;3.95;;
46643;SDS011;32371;51.032;5.816;2024-01-30T12:07:16;8.35;;;3.40;;
46643;SDS011;32371;51.032;5.816;2024-01-30T12:09:41;3.92;;;2.60;;
46643;SDS011;32371;51.032;5.816;2024-01-30T12:12:07;6.70;;;3.90;;
46643;SDS011;32371;51.032;5.816;2024-01-30T12:14:37;6.90;;;3.92;;
46643;SDS011;32371;51.032;5.816;2024-01-30T12:17:03;10.98;;;3.55;;
46643;SDS011;32371;51.032;5.816;2024-01-30T12:19:28;11.65;;;4.05;;
46643;SDS011;32371;51.032;5.816;2024-01-30T12:21:56;10.52;;;4.38;;
46643;SDS011;32371;51.032;5.816;2024-01-30T12:24:25;6.75;;;3.33;;
46643;SDS011;32371;51.032;5.816;2024-01-30T12:26:52;8.98;;;3.65;;
46643;SDS011;32371;51.032;5.816;2024-01-30T12:29:17;5.50;;;3.47;;
46643;SDS011;32371;51.032;5.816;2024-01-30T12:31:44;12.50;;;3.60;;
46643;SDS011;32371;51.032;5.816;2024-01-30T12:34:10;9.18;;;3.80;;
46643;SDS011;32371;51.032;5.816;2024-01-30T12:36:38;13.23;;;4.00;;
46643;SDS011;32371;51.032;5.816;2024-01-30T12:39:04;7.07;;;3.20;;
46643;SDS011;32371;51.032;5.816;2024-01-30T12:41:29;7.13;;;3.78;;
46643;SDS011;32371;51.032;5.816;2024-01-30T12:43:56;10.38;;;3.63;;
46643;SDS011;32371;51.032;5.816;2024-01-30T12:46:25;8.32;;;3.88;;
46643;SDS011;32371;51.032;5.816;2024-01-30T12:48:52;12.68;;;4.55;;
46643;SDS011;32371;51.032;5.816;2024-01-30T12:51:18;8.27;;;4.07;;
46643;SDS011;32371;51.032;5.816;2024-01-30T12:53:43;9.25;;;3.20;;
46643;SDS011;32371;51.032;5.816;2024-01-30T12:56:09;7.53;;;3.60;;
46643;SDS011;32371;51.032;5.816;2024-01-30T12:58:34;8.10;;;4.15;;
46643;SDS011;32371;51.032;5.816;2024-01-30T13:01:00;9.77;;;4.00;;
46643;SDS011;32371;51.032;5.816;2024-01-30T13:03:25;8.63;;;3.58;;
46643;SDS011;32371;51.032;5.816;2024-01-30T13:05:51;10.52;;;4.10;;
46643;SDS011;32371;51.032;5.816;2024-01-30T13:08:17;7.28;;;3.47;;
46643;SDS011;32371;51.032;5.816;2024-01-30T13:10:42;5.70;;;3.70;;
46643;SDS011;32371;51.032;5.816;2024-01-30T13:13:07;10.98;;;4.38;;
46643;SDS011;32371;51.032;5.816;2024-01-30T13:15:34;7.40;;;4.13;;
46643;SDS011;32371;51.032;5.816;2024-01-30T13:17:59;5.43;;;3.20;;
46643;SDS011;32371;51.032;5.816;2024-01-30T13:20:25;7.45;;;3.55;;
46643;SDS011;32371;51.032;5.816;2024-01-30T13:22:50;6.78;;;3.42;;
46643;SDS011;32371;51.032;5.816;2024-01-30T13:25:16;8.32;;;4.22;;
46643;SDS011;32371;51.032;5.816;2024-01-30T13:27:41;12.23;;;3.85;;
46643;SDS011;32371;51.032;5.816;2024-01-30T13:30:07;6.13;;;3.28;;
46643;SDS011;32371;51.032;5.816;2024-01-30T13:32:34;10.35;;;4.07;;
46643;SDS011;32371;51.032;5.816;2024-01-30T13:34:59;8.63;;;3.88;;
46643;SDS011;32371;51.032;5.816;2024-01-30T13:37:24;6.15;;;3.17;;
46643;SDS011;32371;51.032;5.816;2024-01-30T13:39:51;5.93;;;2.97;;
46643;SDS011;32371;51.032;5.816;2024-01-30T13:42:17;6.82;;;3.38;;
46643;SDS011;32371;51.032;5.816;2024-01-30T13:44:42;5.00;;;2.80;;
46643;SDS011;32371;51.032;5.816;2024-01-30T13:47:08;7.20;;;2.40;;
46643;SDS011;32371;51.032;5.816;2024-01-30T13:49:34;4.13;;;2.58;;
46643;SDS011;32371;51.032;5.816;2024-01-30T13:51:59;8.02;;;2.70;;
46643;SDS011;32371;51.032;5.816;2024-01-30T13:54:25;9.40;;;2.00;;
46643;SDS011;32371;51.032;5.816;2024-01-30T13:56:50;2.25;;;1.10;;
46643;SDS011;32371;51.032;5.816;2024-01-30T13:59:16;9.63;;;1.52;;
46643;SDS011;32371;51.032;5.816;2024-01-30T14:01:47;5.32;;;1.75;;
46643;SDS011;32371;51.032;5.816;2024-01-30T14:04:13;3.05;;;1.42;;
46643;SDS011;32371;51.032;5.816;2024-01-30T14:06:39;3.97;;;1.38;;
46643;SDS011;32371;51.032;5.816;2024-01-30T14:09:05;5.20;;;1.17;;
46643;SDS011;32371;51.032;5.816;2024-01-30T14:11:30;1.58;;;1.00;;
46643;SDS011;32371;51.032;5.816;2024-01-30T14:13:56;3.15;;;0.98;;
46643;SDS011;32371;51.032;5.816;2024-01-30T14:16:21;3.75;;;1.17;;
46643;SDS011;32371;51.032;5.816;2024-01-30T14:18:47;2.90;;;1.20;;
46643;SDS011;32371;51.032;5.816;2024-01-30T14:21:13;5.20;;;1.10;;
46643;SDS011;32371;51.032;5.816;2024-01-30T14:23:38;2.28;;;1.20;;
46643;SDS011;32371;51.032;5.816;2024-01-30T14:26:04;2.60;;;0.70;;
46643;SDS011;32371;51.032;5.816;2024-01-30T14:28:29;4.32;;;1.15;;
46643;SDS011;32371;51.032;5.816;2024-01-30T14:30:54;1.83;;;0.63;;
46643;SDS011;32371;51.032;5.816;2024-01-30T14:33:20;3.17;;;1.02;;
46643;SDS011;32371;51.032;5.816;2024-01-30T14:35:46;2.60;;;0.60;;
46643;SDS011;32371;51.032;5.816;2024-01-30T14:38:11;1.08;;;0.73;;